sensor_id;sensor_type;location;lat;lon;timestamp;pressure;altitude;pressure_sealevel;temperature;humidity
40205;BME280;26963;42.666;23.366;2024-03-17T00:02:00;95194.53;;;10.43;54.75
40205;BME280;26963;42.666;23.366;2024-03-17T00:04:26;95191.84;;;10.43;54.90
40205;BME280;26963;42.666;23.366;2024-03-17T00:06:52;95190.19;;;10.47;55.29
40205;BME280;26963;42.666;23.366;2024-03-17T00:09:18;95187.53;;;10.47;55.12
40205;BME280;26963;42.666;23.366;2024-03-17T00:11:44;95196.06;;;10.49;55.34
40205;BME280;26963;42.666;23.366;2024-03-17T00:14:10;95194.69;;;10.52;55.16
40205;BME280;26963;42.666;23.366;2024-03-17T00:16:39;95192.31;;;10.50;54.92
40205;BME280;26963;42.666;23.366;2024-03-17T00:19:04;95188.66;;;10.41;55.39
40205;BME280;26963;42.666;23.366;2024-03-17T00:21:30;95196.19;;;10.39;55.51
40205;BME280;26963;42.666;23.366;2024-03-17T00:23:57;95187.63;;;10.37;55.78
40205;BME280;26963;42.666;23.366;2024-03-17T00:26:22;95186.59;;;10.33;55.53
40205;BME280;26963;42.666;23.366;2024-03-17T00:28:48;95188.25;;;10.28;55.59
40205;BME280;26963;42.666;23.366;2024-03-17T00:31:16;95181.56;;;10.26;56.03
40205;BME280;26963;42.666;23.366;2024-03-17T00:33:41;95176.56;;;10.19;55.76
40205;BME280;26963;42.666;23.366;2024-03-17T00:36:07;95180.88;;;10.15;55.98
40205;BME280;26963;42.666;23.366;2024-03-17T00:38:32;95174.50;;;10.11;56.24
40205;BME280;26963;42.666;23.366;2024-03-17T00:40:58;95171.31;;;10.09;56.29
40205;BME280;26963;42.666;23.366;2024-03-17T00:43:23;95171.31;;;10.09;56.35
40205;BME280;26963;42.666;23.366;2024-03-17T00:45:52;95170.28;;;10.05;56.38
40205;BME280;26963;42.666;23.366;2024-03-17T00:48:18;95172.44;;;10.03;56.64
40205;BME280;26963;42.666;23.366;2024-03-17T00:50:43;95179.16;;;10.00;56.58
40205;BME280;26963;42.666;23.366;2024-03-17T00:53:12;95183.97;;;9.98;56.73
40205;BME280;26963;42.666;23.366;2024-03-17T00:55:39;95184.25;;;9.96;56.64
40205;BME280;26963;42.666;23.366;2024-03-17T00:58:04;95181.03;;;10.00;56.55
40205;BME280;26963;42.666;23.366;2024-03-17T01:00:30;95183.72;;;10.00;56.49
40205;BME280;26963;42.666;23.366;2024-03-17T01:02:58;95183.75;;;9.94;56.53
40205;BME280;26963;42.666;23.366;2024-03-17T01:05:23;95183.81;;;9.89;56.71
40205;BME280;26963;42.666;23.366;2024-03-17T01:07:49;95177.66;;;9.89;56.88
40205;BME280;26963;42.666;23.366;2024-03-17T01:10:15;95178.22;;;9.86;56.88
40205;BME280;26963;42.666;23.366;2024-03-17T01:12:40;95182.75;;;9.85;56.90
40205;BME280;26963;42.666;23.366;2024-03-17T01:15:06;95180.38;;;9.84;56.76
40205;BME280;26963;42.666;23.366;2024-03-17T01:17:31;95184.94;;;9.83;56.76
40205;BME280;26963;42.666;23.366;2024-03-17T01:19:57;95186.84;;;9.77;56.80
40205;BME280;26963;42.666;23.366;2024-03-17T01:22:23;95178.56;;;9.74;56.86
40205;BME280;26963;42.666;23.366;2024-03-17T01:24:48;95175.91;;;9.74;56.98
40205;BME280;26963;42.666;23.366;2024-03-17T01:27:14;95182.34;;;9.73;57.23
40205;BME280;26963;42.666;23.366;2024-03-17T01:29:41;95183.38;;;9.77;57.10
40205;BME280;26963;42.666;23.366;2024-03-17T01:32:07;95179.69;;;9.73;57.02
40205;BME280;26963;42.666;23.366;2024-03-17T01:34:32;95193.03;;;9.68;57.02
40205;BME280;26963;42.666;23.366;2024-03-17T01:36:58;95185.88;;;9.63;57.09
40205;BME280;26963;42.666;23.366;2024-03-17T01:39:23;95184.56;;;9.60;57.35
40205;BME280;26963;42.666;23.366;2024-03-17T01:41:49;95184.88;;;9.59;57.61
40205;BME280;26963;42.666;23.366;2024-03-17T01:44:24;95183.81;;;9.55;57.65
40205;BME280;26963;42.666;23.366;2024-03-17T01:46:50;95188.34;;;9.54;57.80
40205;BME280;26963;42.666;23.366;2024-03-17T01:49:16;95191.31;;;9.53;57.63
40205;BME280;26963;42.666;23.366;2024-03-17T01:51:42;95191.03;;;9.54;57.65
40205;BME280;26963;42.666;23.366;2024-03-17T01:54:08;95187.00;;;9.57;57.63
40205;BME280;26963;42.666;23.366;2024-03-17T01:56:33;95182.44;;;9.57;57.54
40205;BME280;26963;42.666;23.366;2024-03-17T01:58:59;95182.50;;;9.52;57.64
40205;BME280;26963;42.666;23.366;2024-03-17T02:01:26;95183.31;;;9.53;57.68
40205;BME280;26963;42.666;23.366;2024-03-17T02:03:52;95180.88;;;9.51;57.66
40205;BME280;26963;42.666;23.366;2024-03-17T02:06:17;95182.19;;;9.54;57.43
40205;BME280;26963;42.666;23.366;2024-03-17T02:08:46;95183.56;;;9.51;57.26
40205;BME280;26963;42.666;23.366;2024-03-17T02:11:15;95176.41;;;9.46;57.47
40205;BME280;26963;42.666;23.366;2024-03-17T02:13:48;95192.19;;;9.43;57.53
40205;BME280;26963;42.666;23.366;2024-03-17T02:16:13;95189.78;;;9.41;57.57
40205;BME280;26963;42.666;23.366;2024-03-17T02:18:39;95187.16;;;9.36;57.54
40205;BME280;26963;42.666;23.366;2024-03-17T02:21:04;95186.91;;;9.33;57.86
40205;BME280;26963;42.666;23.366;2024-03-17T02:23:33;95191.22;;;9.28;58.00
40205;BME280;26963;42.666;23.366;2024-03-17T02:25:58;95194.69;;;9.29;58.03
40205;BME280;26963;42.666;23.366;2024-03-17T02:28:24;95184.81;;;9.24;58.47
40205;BME280;26963;42.666;23.366;2024-03-17T02:30:49;95184.56;;;9.21;58.41
40205;BME280;26963;42.666;23.366;2024-03-17T02:33:14;95180.06;;;9.16;58.12
40205;BME280;26963;42.666;23.366;2024-03-17T02:35:40;95183.03;;;9.14;57.90
40205;BME280;26963;42.666;23.366;2024-03-17T02:38:06;95181.69;;;9.12;57.73
40205;BME280;26963;42.666;23.366;2024-03-17T02:40:33;95181.19;;;9.10;58.24
40205;BME280;26963;42.666;23.366;2024-03-17T02:42:59;95177.44;;;9.11;58.26
40205;BME280;26963;42.666;23.366;2024-03-17T02:45:24;95180.66;;;9.08;58.56
40205;BME280;26963;42.666;23.366;2024-03-17T02:47:50;95174.81;;;9.06;58.51
40205;BME280;26963;42.666;23.366;2024-03-17T02:50:15;95183.88;;;9.05;58.72
40205;BME280;26963;42.666;23.366;2024-03-17T02:52:41;95179.34;;;9.00;58.80
40205;BME280;26963;42.666;23.366;2024-03-17T02:55:06;95180.72;;;8.97;58.61
40205;BME280;26963;42.666;23.366;2024-03-17T02:57:32;95169.25;;;8.97;58.55
40205;BME280;26963;42.666;23.366;2024-03-17T03:00:00;95175.94;;;8.94;58.31
40205;BME280;26963;42.666;23.366;2024-03-17T03:02:25;95177.50;;;8.95;58.75
40205;BME280;26963;42.666;23.366;2024-03-17T03:04:51;95173.81;;;8.91;59.05
40205;BME280;26963;42.666;23.366;2024-03-17T03:07:16;95177.81;;;8.89;59.26
40205;BME280;26963;42.666;23.366;2024-03-17T03:09:42;95167.97;;;8.89;59.25
40205;BME280;26963;42.666;23.366;2024-03-17T03:12:07;95173.03;;;8.86;59.07
40205;BME280;26963;42.666;23.366;2024-03-17T03:14:33;95182.13;;;8.85;59.09
40205;BME280;26963;42.666;23.366;2024-03-17T03:16:58;95182.41;;;8.83;59.49
40205;BME280;26963;42.666;23.366;2024-03-17T03:19:25;95182.94;;;8.80;59.51
40205;BME280;26963;42.666;23.366;2024-03-17T03:21:50;95176.53;;;8.81;59.50
40205;BME280;26963;42.666;23.366;2024-03-17T03:24:17;95175.22;;;8.78;59.80
40205;BME280;26963;42.666;23.366;2024-03-17T03:26:42;95176.28;;;8.77;59.91
40205;BME280;26963;42.666;23.366;2024-03-17T03:29:09;95171.22;;;8.76;59.67
40205;BME280;26963;42.666;23.366;2024-03-17T03:31:35;95177.09;;;8.78;59.71
40205;BME280;26963;42.666;23.366;2024-03-17T03:34:01;95172.28;;;8.75;59.87
40205;BME280;26963;42.666;23.366;2024-03-17T03:36:28;95184.53;;;8.81;59.90
40205;BME280;26963;42.666;23.366;2024-03-17T03:38:54;95184.00;;;8.79;59.78
40205;BME280;26963;42.666;23.366;2024-03-17T03:41:19;95185.88;;;8.78;59.42
40205;BME280;26963;42.666;23.366;2024-03-17T03:43:45;95184.56;;;8.76;58.74
40205;BME280;26963;42.666;23.366;2024-03-17T03:46:13;95186.69;;;8.74;58.30
40205;BME280;26963;42.666;23.366;2024-03-17T03:48:38;95179.78;;;8.68;57.86
40205;BME280;26963;42.666;23.366;2024-03-17T03:51:04;95188.91;;;8.61;57.80
40205;BME280;26963;42.666;23.366;2024-03-17T03:53:30;95191.03;;;8.59;57.75
40205;BME280;26963;42.666;23.366;2024-03-17T03:55:57;95196.34;;;8.59;58.35
40205;BME280;26963;42.666;23.366;2024-03-17T03:58:22;95200.09;;;8.58;56.98
40205;BME280;26963;42.666;23.366;2024-03-17T04:00:48;95198.50;;;8.57;57.82
40205;BME280;26963;42.666;23.366;2024-03-17T04:03:13;95211.31;;;8.55;58.14
40205;BME280;26963;42.666;23.366;2024-03-17T04:05:38;95204.38;;;8.54;57.55
40205;BME280;26963;42.666;23.366;2024-03-17T04:08:04;95194.81;;;8.48;58.47
40205;BME280;26963;42.666;23.366;2024-03-17T04:10:30;95199.59;;;8.46;58.13
40205;BME280;26963;42.666;23.366;2024-03-17T04:12:55;95207.84;;;8.39;58.63
40205;BME280;26963;42.666;23.366;2024-03-17T04:15:22;95209.75;;;8.33;58.97
40205;BME280;26963;42.666;23.366;2024-03-17T04:17:47;95212.94;;;8.30;58.99
40205;BME280;26963;42.666;23.366;2024-03-17T04:20:13;95212.44;;;8.28;58.58
40205;BME280;26963;42.666;23.366;2024-03-17T04:22:42;95211.91;;;8.26;59.12
40205;BME280;26963;42.666;23.366;2024-03-17T04:25:11;95218.56;;;8.24;58.94
40205;BME280;26963;42.666;23.366;2024-03-17T04:27:38;95212.69;;;8.22;58.79
40205;BME280;26963;42.666;23.366;2024-03-17T04:30:04;95228.41;;;8.18;59.48
40205;BME280;26963;42.666;23.366;2024-03-17T04:32:31;95232.44;;;8.15;59.64
40205;BME280;26963;42.666;23.366;2024-03-17T04:34:56;95230.03;;;8.14;59.95
40205;BME280;26963;42.666;23.366;2024-03-17T04:37:22;95230.03;;;8.14;60.22
40205;BME280;26963;42.666;23.366;2024-03-17T04:39:47;95235.91;;;8.16;60.45
40205;BME280;26963;42.666;23.366;2024-03-17T04:42:14;95237.50;;;8.22;60.56
40205;BME280;26963;42.666;23.366;2024-03-17T04:44:40;95240.94;;;8.23;60.58
40205;BME280;26963;42.666;23.366;2024-03-17T04:47:05;95247.88;;;8.24;60.73
40205;BME280;26963;42.666;23.366;2024-03-17T04:49:32;95244.41;;;8.28;60.48
40205;BME280;26963;42.666;23.366;2024-03-17T04:51:58;95243.88;;;8.31;59.66
40205;BME280;26963;42.666;23.366;2024-03-17T04:54:24;95250.81;;;8.32;59.37
40205;BME280;26963;42.666;23.366;2024-03-17T04:56:49;95250.25;;;8.36;59.31
40205;BME280;26963;42.666;23.366;2024-03-17T04:59:15;95253.47;;;8.38;60.16
40205;BME280;26963;42.666;23.366;2024-03-17T05:01:40;95255.06;;;8.39;60.26
40205;BME280;26963;42.666;23.366;2024-03-17T05:04:06;95263.56;;;8.41;60.60
40205;BME280;26963;42.666;23.366;2024-03-17T05:06:31;95261.47;;;8.48;60.46
40205;BME280;26963;42.666;23.366;2024-03-17T05:08:56;95265.19;;;8.52;60.54
40205;BME280;26963;42.666;23.366;2024-03-17T05:11:22;95267.81;;;8.62;61.04
40205;BME280;26963;42.666;23.366;2024-03-17T05:13:49;95272.06;;;8.69;60.12
40205;BME280;26963;42.666;23.366;2024-03-17T05:16:14;95273.16;;;8.73;59.70
40205;BME280;26963;42.666;23.366;2024-03-17T05:18:41;95276.03;;;8.76;59.24
40205;BME280;26963;42.666;23.366;2024-03-17T05:21:07;95281.66;;;8.80;58.89
40205;BME280;26963;42.666;23.366;2024-03-17T05:23:33;95285.91;;;8.86;58.49
40205;BME280;26963;42.666;23.366;2024-03-17T05:26:00;95283.22;;;8.91;57.84
40205;BME280;26963;42.666;23.366;2024-03-17T05:28:26;95277.34;;;8.94;57.72
40205;BME280;26963;42.666;23.366;2024-03-17T05:30:52;95284.78;;;8.97;57.69
40205;BME280;26963;42.666;23.366;2024-03-17T05:33:18;95286.09;;;9.05;57.62
40205;BME280;26963;42.666;23.366;2024-03-17T05:38:18;95281.81;;;9.14;57.68
40205;BME280;26963;42.666;23.366;2024-03-17T05:40:44;95288.19;;;9.19;57.75
40205;BME280;26963;42.666;23.366;2024-03-17T05:43:17;95280.94;;;9.24;57.97
40205;BME280;26963;42.666;23.366;2024-03-17T05:45:42;95273.97;;;9.34;57.57
40205;BME280;26963;42.666;23.366;2024-03-17T05:48:09;95280.34;;;9.38;57.93
40205;BME280;26963;42.666;23.366;2024-03-17T05:50:34;95281.09;;;9.43;57.73
40205;BME280;26963;42.666;23.366;2024-03-17T05:53:00;95270.13;;;9.50;57.51
40205;BME280;26963;42.666;23.366;2024-03-17T05:55:29;95235.75;;;9.33;57.81
40205;BME280;26963;42.666;23.366;2024-03-17T05:57:54;95271.63;;;9.67;57.61
40205;BME280;26963;42.666;23.366;2024-03-17T06:00:19;95272.09;;;9.74;57.48
40205;BME280;26963;42.666;23.366;2024-03-17T06:02:46;95271.56;;;9.77;56.83
40205;BME280;26963;42.666;23.366;2024-03-17T06:05:11;95281.13;;;9.83;57.08
40205;BME280;26963;42.666;23.366;2024-03-17T06:07:39;95281.84;;;9.94;57.17
40205;BME280;26963;42.666;23.366;2024-03-17T06:10:05;95279.38;;;10.03;56.56
40205;BME280;26963;42.666;23.366;2024-03-17T06:12:30;95285.97;;;10.10;56.52
40205;BME280;26963;42.666;23.366;2024-03-17T06:14:56;95286.47;;;10.18;55.71
40205;BME280;26963;42.666;23.366;2024-03-17T06:17:21;95293.72;;;10.12;55.47
40205;BME280;26963;42.666;23.366;2024-03-17T06:19:46;95296.41;;;10.12;56.09
40205;BME280;26963;42.666;23.366;2024-03-17T06:22:12;95293.56;;;10.03;56.55
40205;BME280;26963;42.666;23.366;2024-03-17T06:24:40;95293.34;;;9.94;57.02
40205;BME280;26963;42.666;23.366;2024-03-17T06:27:06;95298.47;;;9.86;57.34
40205;BME280;26963;42.666;23.366;2024-03-17T06:29:34;95299.31;;;9.81;57.77
40205;BME280;26963;42.666;23.366;2024-03-17T06:32:00;95291.25;;;9.86;59.04
40205;BME280;26963;42.666;23.366;2024-03-17T06:34:25;95299.72;;;9.99;57.77
40205;BME280;26963;42.666;23.366;2024-03-17T06:36:51;95309.34;;;10.00;58.09
40205;BME280;26963;42.666;23.366;2024-03-17T06:39:16;95307.16;;;10.02;57.23
40205;BME280;26963;42.666;23.366;2024-03-17T06:41:42;95306.38;;;10.01;57.25
40205;BME280;26963;42.666;23.366;2024-03-17T06:44:08;95314.16;;;9.98;57.27
40205;BME280;26963;42.666;23.366;2024-03-17T06:46:34;95316.22;;;10.11;57.55
40205;BME280;26963;42.666;23.366;2024-03-17T06:49:00;95320.78;;;10.40;57.40
40205;BME280;26963;42.666;23.366;2024-03-17T06:51:25;95315.97;;;10.71;56.33
40205;BME280;26963;42.666;23.366;2024-03-17T06:53:51;95308.88;;;11.10;55.42
40205;BME280;26963;42.666;23.366;2024-03-17T06:56:16;95314.00;;;11.50;54.77
40205;BME280;26963;42.666;23.366;2024-03-17T06:58:41;95309.81;;;11.82;52.86
40205;BME280;26963;42.666;23.366;2024-03-17T07:01:07;95312.59;;;12.15;52.17
40205;BME280;26963;42.666;23.366;2024-03-17T07:03:33;95311.91;;;12.56;51.81
40205;BME280;26963;42.666;23.366;2024-03-17T07:05:59;95302.81;;;12.99;51.79
40205;BME280;26963;42.666;23.366;2024-03-17T07:08:27;95311.19;;;13.39;49.89
40205;BME280;26963;42.666;23.366;2024-03-17T07:10:56;95301.97;;;13.54;47.63
40205;BME280;26963;42.666;23.366;2024-03-17T07:13:21;95305.72;;;13.81;47.83
40205;BME280;26963;42.666;23.366;2024-03-17T07:15:47;95302.75;;;14.28;48.60
40205;BME280;26963;42.666;23.366;2024-03-17T07:18:13;95301.16;;;14.72;45.65
40205;BME280;26963;42.666;23.366;2024-03-17T07:20:38;95298.38;;;15.44;45.94
40205;BME280;26963;42.666;23.366;2024-03-17T07:23:04;95301.47;;;16.12;45.12
40205;BME280;26963;42.666;23.366;2024-03-17T07:25:30;95290.63;;;16.65;41.89
40205;BME280;26963;42.666;23.366;2024-03-17T07:27:55;95295.44;;;16.51;40.55
40205;BME280;26963;42.666;23.366;2024-03-17T07:30:21;95296.06;;;16.30;40.56
40205;BME280;26963;42.666;23.366;2024-03-17T07:32:46;95297.50;;;16.19;41.32
40205;BME280;26963;42.666;23.366;2024-03-17T07:35:12;95298.31;;;16.10;42.07
40205;BME280;26963;42.666;23.366;2024-03-17T07:37:38;95302.78;;;15.97;41.13
40205;BME280;26963;42.666;23.366;2024-03-17T07:40:04;95295.72;;;15.70;41.07
40205;BME280;26963;42.666;23.366;2024-03-17T07:42:32;95295.97;;;15.25;41.83
40205;BME280;26963;42.666;23.366;2024-03-17T07:44:57;95301.06;;;14.86;42.38
40205;BME280;26963;42.666;23.366;2024-03-17T07:47:23;95300.41;;;14.35;43.46
40205;BME280;26963;42.666;23.366;2024-03-17T07:49:51;95299.91;;;13.88;44.67
40205;BME280;26963;42.666;23.366;2024-03-17T07:52:16;95306.06;;;13.51;45.88
40205;BME280;26963;42.666;23.366;2024-03-17T07:54:42;95302.50;;;13.14;46.72
40205;BME280;26963;42.666;23.366;2024-03-17T07:57:07;95307.19;;;12.95;47.08
40205;BME280;26963;42.666;23.366;2024-03-17T07:59:34;95301.00;;;12.80;47.25
40205;BME280;26963;42.666;23.366;2024-03-17T08:01:59;95302.88;;;12.66;47.74
40205;BME280;26963;42.666;23.366;2024-03-17T08:04:25;95295.91;;;12.65;47.87
40205;BME280;26963;42.666;23.366;2024-03-17T08:06:50;95302.25;;;12.69;47.95
40205;BME280;26963;42.666;23.366;2024-03-17T08:09:16;95299.50;;;12.74;48.21
40205;BME280;26963;42.666;23.366;2024-03-17T08:11:41;95303.00;;;12.88;47.53
40205;BME280;26963;42.666;23.366;2024-03-17T08:14:11;95300.81;;;13.04;47.81
40205;BME280;26963;42.666;23.366;2024-03-17T08:16:37;95303.69;;;13.36;47.30
40205;BME280;26963;42.666;23.366;2024-03-17T08:19:02;95299.75;;;13.70;46.60
40205;BME280;26963;42.666;23.366;2024-03-17T08:21:29;95296.63;;;14.13;46.32
40205;BME280;26963;42.666;23.366;2024-03-17T08:23:55;95293.53;;;14.51;44.71
40205;BME280;26963;42.666;23.366;2024-03-17T08:26:21;95296.09;;;14.79;43.97
40205;BME280;26963;42.666;23.366;2024-03-17T08:28:46;95291.28;;;14.99;43.16
40205;BME280;26963;42.666;23.366;2024-03-17T08:31:12;95295.47;;;15.14;42.08
40205;BME280;26963;42.666;23.366;2024-03-17T08:36:13;95291.56;;;15.46;40.90
40205;BME280;26963;42.666;23.366;2024-03-17T08:38:41;95288.88;;;15.55;40.84
40205;BME280;26963;42.666;23.366;2024-03-17T08:41:08;95288.91;;;15.73;41.16
40205;BME280;26963;42.666;23.366;2024-03-17T08:43:34;95281.03;;;15.94;40.63
40205;BME280;26963;42.666;23.366;2024-03-17T08:46:06;95280.00;;;16.51;40.37
40205;BME280;26963;42.666;23.366;2024-03-17T08:48:32;95272.66;;;17.17;39.18
40205;BME280;26963;42.666;23.366;2024-03-17T08:50:58;95267.34;;;17.29;38.28
40205;BME280;26963;42.666;23.366;2024-03-17T08:53:24;95270.06;;;17.29;37.73
40205;BME280;26963;42.666;23.366;2024-03-17T08:55:50;95260.84;;;17.21;38.10
40205;BME280;26963;42.666;23.366;2024-03-17T08:58:15;95264.13;;;17.36;38.84
40205;BME280;26963;42.666;23.366;2024-03-17T09:00:41;95263.75;;;17.67;39.00
40205;BME280;26963;42.666;23.366;2024-03-17T09:03:09;95257.56;;;17.88;38.45
40205;BME280;26963;42.666;23.366;2024-03-17T09:05:39;95254.13;;;18.00;36.84
40205;BME280;26963;42.666;23.366;2024-03-17T09:08:08;95258.22;;;18.06;36.39
40205;BME280;26963;42.666;23.366;2024-03-17T09:10:41;95256.41;;;17.98;36.46
40205;BME280;26963;42.666;23.366;2024-03-17T09:13:08;95252.44;;;17.95;36.47
40205;BME280;26963;42.666;23.366;2024-03-17T09:15:37;95249.31;;;18.05;37.19
40205;BME280;26963;42.666;23.366;2024-03-17T09:18:03;95246.56;;;18.26;37.82
40205;BME280;26963;42.666;23.366;2024-03-17T09:20:28;95233.19;;;18.42;36.06
40205;BME280;26963;42.666;23.366;2024-03-17T09:22:54;95235.03;;;18.51;35.96
40205;BME280;26963;42.666;23.366;2024-03-17T09:25:20;95238.66;;;18.67;37.11
40205;BME280;26963;42.666;23.366;2024-03-17T09:27:46;95227.22;;;18.95;34.49
40205;BME280;26963;42.666;23.366;2024-03-17T09:30:11;95225.16;;;19.04;34.03
40205;BME280;26963;42.666;23.366;2024-03-17T09:32:37;95231.03;;;19.19;34.54
40205;BME280;26963;42.666;23.366;2024-03-17T09:35:03;95222.44;;;19.29;34.45
40205;BME280;26963;42.666;23.366;2024-03-17T09:37:28;95221.53;;;19.37;34.79
40205;BME280;26963;42.666;23.366;2024-03-17T09:39:56;95216.97;;;19.42;34.24
40205;BME280;26963;42.666;23.366;2024-03-17T09:42:22;95217.09;;;19.45;33.70
40205;BME280;26963;42.666;23.366;2024-03-17T09:44:49;95215.63;;;19.48;33.50
40205;BME280;26963;42.666;23.366;2024-03-17T09:47:19;95210.78;;;19.41;32.87
40205;BME280;26963;42.666;23.366;2024-03-17T09:49:48;95214.03;;;19.47;31.88
40205;BME280;26963;42.666;23.366;2024-03-17T09:52:18;95212.13;;;19.47;30.23
40205;BME280;26963;42.666;23.366;2024-03-17T09:54:44;95211.44;;;19.38;30.87
40205;BME280;26963;42.666;23.366;2024-03-17T09:57:14;95208.91;;;19.17;29.56
40205;BME280;26963;42.666;23.366;2024-03-17T09:59:41;95205.94;;;18.97;30.33
40205;BME280;26963;42.666;23.366;2024-03-17T10:02:07;95211.16;;;18.90;30.19
40205;BME280;26963;42.666;23.366;2024-03-17T10:04:40;95206.59;;;18.82;30.58
40205;BME280;26963;42.666;23.366;2024-03-17T10:07:05;95204.78;;;18.86;31.04
40205;BME280;26963;42.666;23.366;2024-03-17T10:09:31;95201.66;;;18.96;31.88
40205;BME280;26963;42.666;23.366;2024-03-17T10:11:57;95208.00;;;19.00;31.33
40205;BME280;26963;42.666;23.366;2024-03-17T10:14:23;95210.47;;;19.05;32.38
40205;BME280;26963;42.666;23.366;2024-03-17T10:16:48;95215.31;;;19.12;32.58
40205;BME280;26963;42.666;23.366;2024-03-17T10:19:14;95209.44;;;19.10;29.12
40205;BME280;26963;42.666;23.366;2024-03-17T10:21:42;95201.63;;;18.84;29.26
40205;BME280;26963;42.666;23.366;2024-03-17T10:24:09;95211.56;;;18.67;29.80
40205;BME280;26963;42.666;23.366;2024-03-17T10:26:44;95211.31;;;18.60;29.06
40205;BME280;26963;42.666;23.366;2024-03-17T10:29:30;95212.53;;;18.50;30.14
40205;BME280;26963;42.666;23.366;2024-03-17T10:31:57;95214.81;;;18.48;30.60
40205;BME280;26963;42.666;23.366;2024-03-17T10:34:23;95216.97;;;18.55;31.36
40205;BME280;26963;42.666;23.366;2024-03-17T10:39:39;95207.19;;;18.87;30.54
40205;BME280;26963;42.666;23.366;2024-03-17T10:42:09;95207.75;;;18.93;29.91
40205;BME280;26963;42.666;23.366;2024-03-17T10:44:35;95207.06;;;18.84;30.08
40205;BME280;26963;42.666;23.366;2024-03-17T10:47:01;95204.13;;;18.77;29.68
40205;BME280;26963;42.666;23.366;2024-03-17T10:49:28;95212.47;;;18.71;30.20
40205;BME280;26963;42.666;23.366;2024-03-17T10:51:57;95208.16;;;18.70;30.59
40205;BME280;26963;42.666;23.366;2024-03-17T10:54:25;95205.00;;;18.81;30.68
40205;BME280;26963;42.666;23.366;2024-03-17T10:56:54;95202.88;;;18.86;28.02
40205;BME280;26963;42.666;23.366;2024-03-17T10:59:20;95194.28;;;18.84;28.15
40205;BME280;26963;42.666;23.366;2024-03-17T11:01:51;95196.00;;;18.89;28.26
40205;BME280;26963;42.666;23.366;2024-03-17T11:04:16;95198.38;;;18.90;27.90
40205;BME280;26963;42.666;23.366;2024-03-17T11:06:42;95192.47;;;18.88;27.50
40205;BME280;26963;42.666;23.366;2024-03-17T11:09:09;95188.75;;;18.81;27.49
40205;BME280;26963;42.666;23.366;2024-03-17T11:11:38;95182.19;;;18.69;27.09
40205;BME280;26963;42.666;23.366;2024-03-17T11:14:17;95191.78;;;18.54;27.23
40205;BME280;26963;42.666;23.366;2024-03-17T11:16:44;95194.47;;;18.42;28.31
40205;BME280;26963;42.666;23.366;2024-03-17T11:19:13;95190.75;;;18.47;28.89
40205;BME280;26963;42.666;23.366;2024-03-17T11:24:24;95188.28;;;18.54;28.67
40205;BME280;26963;42.666;23.366;2024-03-17T11:26:52;95179.13;;;18.46;28.94
40205;BME280;26963;42.666;23.366;2024-03-17T11:29:28;95189.19;;;18.46;29.35
40205;BME280;26963;42.666;23.366;2024-03-17T11:31:53;95180.25;;;18.45;29.16
40205;BME280;26963;42.666;23.366;2024-03-17T11:36:55;95170.41;;;18.28;29.34
40205;BME280;26963;42.666;23.366;2024-03-17T11:39:21;95167.13;;;18.22;30.16
40205;BME280;26963;42.666;23.366;2024-03-17T11:42:06;95164.44;;;18.35;30.90
40205;BME280;26963;42.666;23.366;2024-03-17T11:44:39;95157.56;;;18.50;31.15
40205;BME280;26963;42.666;23.366;2024-03-17T11:47:07;95156.00;;;18.61;31.41
40205;BME280;26963;42.666;23.366;2024-03-17T11:49:50;95158.72;;;18.73;29.52
40205;BME280;26963;42.666;23.366;2024-03-17T11:52:16;95157.16;;;18.85;29.18
40205;BME280;26963;42.666;23.366;2024-03-17T11:57:08;95153.53;;;18.93;29.49
40205;BME280;26963;42.666;23.366;2024-03-17T11:59:35;95152.75;;;18.93;28.88
40205;BME280;26963;42.666;23.366;2024-03-17T12:02:00;95143.59;;;18.85;28.57
40205;BME280;26963;42.666;23.366;2024-03-17T12:04:27;95140.66;;;18.78;29.09
40205;BME280;26963;42.666;23.366;2024-03-17T12:06:55;95142.22;;;18.91;29.23
40205;BME280;26963;42.666;23.366;2024-03-17T12:09:24;95139.63;;;18.95;29.78
40205;BME280;26963;42.666;23.366;2024-03-17T12:11:50;95135.81;;;18.96;28.71
40205;BME280;26963;42.666;23.366;2024-03-17T12:14:17;95143.59;;;18.97;28.75
40205;BME280;26963;42.666;23.366;2024-03-17T12:16:51;95142.22;;;19.03;29.26
40205;BME280;26963;42.666;23.366;2024-03-17T12:19:17;95139.97;;;19.05;29.16
40205;BME280;26963;42.666;23.366;2024-03-17T12:21:44;95141.56;;;19.06;29.59
40205;BME280;26963;42.666;23.366;2024-03-17T12:24:14;95142.22;;;19.03;29.08
40205;BME280;26963;42.666;23.366;2024-03-17T12:26:41;95143.81;;;19.04;29.18
40205;BME280;26963;42.666;23.366;2024-03-17T12:31:49;95139.06;;;18.89;29.25
40205;BME280;26963;42.666;23.366;2024-03-17T12:34:15;95143.38;;;18.90;29.27
40205;BME280;26963;42.666;23.366;2024-03-17T12:36:41;95122.69;;;18.85;30.03
40205;BME280;26963;42.666;23.366;2024-03-17T12:39:25;95144.06;;;18.99;29.83
40205;BME280;26963;42.666;23.366;2024-03-17T12:42:04;95133.19;;;18.87;30.30
40205;BME280;26963;42.666;23.366;2024-03-17T12:44:31;95144.28;;;18.57;30.57
40205;BME280;26963;42.666;23.366;2024-03-17T12:46:57;95141.53;;;18.32;31.22
40205;BME280;26963;42.666;23.366;2024-03-17T12:49:22;95143.00;;;18.30;31.36
40205;BME280;26963;42.666;23.366;2024-03-17T12:51:50;95139.50;;;18.29;31.66
40205;BME280;26963;42.666;23.366;2024-03-17T12:54:17;95139.94;;;18.31;31.10
40205;BME280;26963;42.666;23.366;2024-03-17T12:56:44;95083.94;;;17.98;31.42
40205;BME280;26963;42.666;23.366;2024-03-17T12:59:40;95141.41;;;18.29;31.75
40205;BME280;26963;42.666;23.366;2024-03-17T13:02:24;95132.72;;;18.23;32.68
40205;BME280;26963;42.666;23.366;2024-03-17T13:07:37;95133.81;;;18.09;33.89
40205;BME280;26963;42.666;23.366;2024-03-17T13:10:04;95125.81;;;18.13;33.98
40205;BME280;26963;42.666;23.366;2024-03-17T13:12:33;95127.72;;;18.13;34.37
40205;BME280;26963;42.666;23.366;2024-03-17T13:14:58;95096.50;;;17.82;33.76